sensor_id;sensor_type;location;lat;lon;timestamp;pressure;altitude;pressure_sealevel;temperature
9119;BMP180;4594;50.994;7.126;2022-07-29T00:00:09;100627.00;;;25.20
9119;BMP180;4594;50.994;7.126;2022-07-29T00:02:35;100627.00;;;25.20
9119;BMP180;4594;50.994;7.126;2022-07-29T00:05:02;100621.00;;;25.20
9119;BMP180;4594;50.994;7.126;2022-07-29T00:07:28;100617.00;;;25.20
9119;BMP180;4594;50.994;7.126;2022-07-29T00:09:54;100620.00;;;25.20
9119;BMP180;4594;50.994;7.126;2022-07-29T00:12:23;100619.00;;;25.20
9119;BMP180;4594;50.994;7.126;2022-07-29T00:14:49;100611.00;;;25.20
9119;BMP180;4594;50.994;7.126;2022-07-29T00:17:15;100606.00;;;25.20
9119;BMP180;4594;50.994;7.126;2022-07-29T00:19:41;100624.00;;;25.20
9119;BMP180;4594;50.994;7.126;2022-07-29T00:22:06;100610.00;;;25.20
9119;BMP180;4594;50.994;7.126;2022-07-29T00:24:32;100602.00;;;25.20
9119;BMP180;4594;50.994;7.126;2022-07-29T00:26:58;100602.00;;;25.20
9119;BMP180;4594;50.994;7.126;2022-07-29T00:29:24;100597.00;;;25.20
9119;BMP180;4594;50.994;7.126;2022-07-29T00:31:50;100599.00;;;25.20
9119;BMP180;4594;50.994;7.126;2022-07-29T00:34:16;100596.00;;;25.20
9119;BMP180;4594;50.994;7.126;2022-07-29T00:37:00;100592.00;;;25.20
9119;BMP180;4594;50.994;7.126;2022-07-29T00:39:26;100592.00;;;25.20
9119;BMP180;4594;50.994;7.126;2022-07-29T00:41:52;100590.00;;;25.20
9119;BMP180;4594;50.994;7.126;2022-07-29T00:44:17;100590.00;;;25.20
9119;BMP180;4594;50.994;7.126;2022-07-29T00:46:43;100592.00;;;25.20
9119;BMP180;4594;50.994;7.126;2022-07-29T00:49:09;100590.00;;;25.20
9119;BMP180;4594;50.994;7.126;2022-07-29T00:51:37;100595.00;;;25.20
9119;BMP180;4594;50.994;7.126;2022-07-29T00:54:04;100579.00;;;25.20
9119;BMP180;4594;50.994;7.126;2022-07-29T00:56:31;100581.00;;;25.20
9119;BMP180;4594;50.994;7.126;2022-07-29T00:58:58;100577.00;;;25.20
9119;BMP180;4594;50.994;7.126;2022-07-29T01:01:25;100577.00;;;25.20
9119;BMP180;4594;50.994;7.126;2022-07-29T01:03:50;100573.00;;;25.20
9119;BMP180;4594;50.994;7.126;2022-07-29T01:06:19;100574.00;;;25.20
9119;BMP180;4594;50.994;7.126;2022-07-29T01:08:47;100577.00;;;25.20
9119;BMP180;4594;50.994;7.126;2022-07-29T01:11:15;100571.00;;;25.20
9119;BMP180;4594;50.994;7.126;2022-07-29T01:13:43;100576.00;;;25.10
9119;BMP180;4594;50.994;7.126;2022-07-29T01:16:21;100574.00;;;25.10
9119;BMP180;4594;50.994;7.126;2022-07-29T01:18:56;100579.00;;;25.00
9119;BMP180;4594;50.994;7.126;2022-07-29T01:21:53;100569.00;;;25.00
9119;BMP180;4594;50.994;7.126;2022-07-29T01:24:33;100572.00;;;24.90
9119;BMP180;4594;50.994;7.126;2022-07-29T01:29:49;100572.00;;;24.90
9119;BMP180;4594;50.994;7.126;2022-07-29T01:32:26;100563.00;;;24.90
9119;BMP180;4594;50.994;7.126;2022-07-29T01:35:08;100561.00;;;24.90
9119;BMP180;4594;50.994;7.126;2022-07-29T01:40:28;100547.00;;;24.80
9119;BMP180;4594;50.994;7.126;2022-07-29T01:42:59;100543.00;;;24.80
9119;BMP180;4594;50.994;7.126;2022-07-29T01:45:41;100540.00;;;24.80
9119;BMP180;4594;50.994;7.126;2022-07-29T01:48:18;100541.00;;;24.80
9119;BMP180;4594;50.994;7.126;2022-07-29T01:53:50;100531.00;;;24.80
9119;BMP180;4594;50.994;7.126;2022-07-29T01:56:19;100526.00;;;24.80
9119;BMP180;4594;50.994;7.126;2022-07-29T01:58:48;100521.00;;;24.80
9119;BMP180;4594;50.994;7.126;2022-07-29T02:01:17;100518.00;;;24.80
9119;BMP180;4594;50.994;7.126;2022-07-29T02:03:45;100518.00;;;24.80
9119;BMP180;4594;50.994;7.126;2022-07-29T02:06:16;100510.00;;;24.80
9119;BMP180;4594;50.994;7.126;2022-07-29T02:08:44;100508.00;;;24.80
9119;BMP180;4594;50.994;7.126;2022-07-29T02:11:11;100511.00;;;24.80
9119;BMP180;4594;50.994;7.126;2022-07-29T02:13:38;100512.00;;;24.80
9119;BMP180;4594;50.994;7.126;2022-07-29T02:16:06;100508.00;;;24.80
9119;BMP180;4594;50.994;7.126;2022-07-29T02:18:37;100512.00;;;24.90
9119;BMP180;4594;50.994;7.126;2022-07-29T02:21:05;100514.00;;;24.90
9119;BMP180;4594;50.994;7.126;2022-07-29T02:23:33;100515.00;;;24.90
9119;BMP180;4594;50.994;7.126;2022-07-29T02:26:02;100519.00;;;24.90
9119;BMP180;4594;50.994;7.126;2022-07-29T02:28:31;100522.00;;;25.00
9119;BMP180;4594;50.994;7.126;2022-07-29T02:31:01;100525.00;;;25.00
9119;BMP180;4594;50.994;7.126;2022-07-29T02:33:30;100532.00;;;25.00
9119;BMP180;4594;50.994;7.126;2022-07-29T02:35:58;100531.00;;;25.00
9119;BMP180;4594;50.994;7.126;2022-07-29T02:38:27;100537.00;;;25.00
9119;BMP180;4594;50.994;7.126;2022-07-29T02:41:16;100530.00;;;25.00
9119;BMP180;4594;50.994;7.126;2022-07-29T02:43:47;100529.00;;;24.90
9119;BMP180;4594;50.994;7.126;2022-07-29T02:46:21;100518.00;;;24.90
9119;BMP180;4594;50.994;7.126;2022-07-29T02:51:55;100517.00;;;24.70
9119;BMP180;4594;50.994;7.126;2022-07-29T02:54:56;100502.00;;;24.60
9119;BMP180;4594;50.994;7.126;2022-07-29T02:57:39;100502.00;;;24.60
9119;BMP180;4594;50.994;7.126;2022-07-29T03:00:09;100511.00;;;24.50
9119;BMP180;4594;50.994;7.126;2022-07-29T03:02:48;100508.00;;;24.50
9119;BMP180;4594;50.994;7.126;2022-07-29T03:05:20;100514.00;;;24.50
9119;BMP180;4594;50.994;7.126;2022-07-29T03:07:52;100518.00;;;24.50
9119;BMP180;4594;50.994;7.126;2022-07-29T03:10:18;100523.00;;;24.50
9119;BMP180;4594;50.994;7.126;2022-07-29T03:12:44;100519.00;;;24.50
9119;BMP180;4594;50.994;7.126;2022-07-29T03:15:11;100525.00;;;24.50
9119;BMP180;4594;50.994;7.126;2022-07-29T03:17:38;100523.00;;;24.50
9119;BMP180;4594;50.994;7.126;2022-07-29T03:20:07;100538.00;;;24.50
9119;BMP180;4594;50.994;7.126;2022-07-29T03:22:38;100548.00;;;24.50
9119;BMP180;4594;50.994;7.126;2022-07-29T03:25:12;100566.00;;;24.50
9119;BMP180;4594;50.994;7.126;2022-07-29T03:27:38;100562.00;;;24.50
9119;BMP180;4594;50.994;7.126;2022-07-29T03:30:05;100550.00;;;24.40
9119;BMP180;4594;50.994;7.126;2022-07-29T03:32:31;100568.00;;;24.40
9119;BMP180;4594;50.994;7.126;2022-07-29T03:34:57;100567.00;;;24.40
9119;BMP180;4594;50.994;7.126;2022-07-29T03:37:23;100574.00;;;24.40
9119;BMP180;4594;50.994;7.126;2022-07-29T03:39:50;100567.00;;;24.40
9119;BMP180;4594;50.994;7.126;2022-07-29T03:42:21;100561.00;;;24.40
9119;BMP180;4594;50.994;7.126;2022-07-29T03:44:50;100566.00;;;24.40
9119;BMP180;4594;50.994;7.126;2022-07-29T03:47:27;100563.00;;;24.40
9119;BMP180;4594;50.994;7.126;2022-07-29T03:50:05;100563.00;;;24.40
9119;BMP180;4594;50.994;7.126;2022-07-29T03:52:31;100565.00;;;24.40
9119;BMP180;4594;50.994;7.126;2022-07-29T03:54:57;100559.00;;;24.40
9119;BMP180;4594;50.994;7.126;2022-07-29T03:57:27;100560.00;;;24.40
9119;BMP180;4594;50.994;7.126;2022-07-29T03:59:54;100571.00;;;24.40
9119;BMP180;4594;50.994;7.126;2022-07-29T04:02:21;100570.00;;;24.30
9119;BMP180;4594;50.994;7.126;2022-07-29T04:04:48;100561.00;;;24.30
9119;BMP180;4594;50.994;7.126;2022-07-29T04:07:15;100562.00;;;24.30
9119;BMP180;4594;50.994;7.126;2022-07-29T04:09:41;100563.00;;;24.30
9119;BMP180;4594;50.994;7.126;2022-07-29T04:12:07;100565.00;;;24.30
9119;BMP180;4594;50.994;7.126;2022-07-29T04:14:34;100562.00;;;24.30
9119;BMP180;4594;50.994;7.126;2022-07-29T04:17:02;100562.00;;;24.30
9119;BMP180;4594;50.994;7.126;2022-07-29T04:19:28;100571.00;;;24.30
9119;BMP180;4594;50.994;7.126;2022-07-29T04:21:55;100573.00;;;24.30
9119;BMP180;4594;50.994;7.126;2022-07-29T04:24:21;100576.00;;;24.30
9119;BMP180;4594;50.994;7.126;2022-07-29T04:26:47;100583.00;;;24.30
9119;BMP180;4594;50.994;7.126;2022-07-29T04:29:14;100575.00;;;24.20
9119;BMP180;4594;50.994;7.126;2022-07-29T04:31:41;100586.00;;;24.20
9119;BMP180;4594;50.994;7.126;2022-07-29T04:34:07;100589.00;;;24.30
9119;BMP180;4594;50.994;7.126;2022-07-29T04:36:34;100573.00;;;24.30
9119;BMP180;4594;50.994;7.126;2022-07-29T04:39:00;100571.00;;;24.30
9119;BMP180;4594;50.994;7.126;2022-07-29T04:41:27;100578.00;;;24.30
9119;BMP180;4594;50.994;7.126;2022-07-29T04:43:53;100579.00;;;24.30
9119;BMP180;4594;50.994;7.126;2022-07-29T04:46:19;100577.00;;;24.30
9119;BMP180;4594;50.994;7.126;2022-07-29T04:48:48;100578.00;;;24.30
9119;BMP180;4594;50.994;7.126;2022-07-29T04:51:15;100577.00;;;24.30
9119;BMP180;4594;50.994;7.126;2022-07-29T04:53:40;100566.00;;;24.30
9119;BMP180;4594;50.994;7.126;2022-07-29T04:56:06;100560.00;;;24.30
9119;BMP180;4594;50.994;7.126;2022-07-29T04:58:35;100564.00;;;24.30
9119;BMP180;4594;50.994;7.126;2022-07-29T05:01:01;100575.00;;;24.30
9119;BMP180;4594;50.994;7.126;2022-07-29T05:03:27;100577.00;;;24.30
9119;BMP180;4594;50.994;7.126;2022-07-29T05:05:53;100567.00;;;24.30
9119;BMP180;4594;50.994;7.126;2022-07-29T05:08:19;100575.00;;;24.40
9119;BMP180;4594;50.994;7.126;2022-07-29T05:10:45;100583.00;;;24.40
9119;BMP180;4594;50.994;7.126;2022-07-29T05:13:11;100572.00;;;24.50
9119;BMP180;4594;50.994;7.126;2022-07-29T05:15:37;100582.00;;;24.50
9119;BMP180;4594;50.994;7.126;2022-07-29T05:18:03;100592.00;;;24.70
9119;BMP180;4594;50.994;7.126;2022-07-29T05:20:30;100596.00;;;24.80
9119;BMP180;4594;50.994;7.126;2022-07-29T05:22:57;100600.00;;;24.90
9119;BMP180;4594;50.994;7.126;2022-07-29T05:25:25;100612.00;;;25.00
9119;BMP180;4594;50.994;7.126;2022-07-29T05:27:51;100606.00;;;25.10
9119;BMP180;4594;50.994;7.126;2022-07-29T05:30:17;100602.00;;;25.10
9119;BMP180;4594;50.994;7.126;2022-07-29T05:32:43;100605.00;;;25.20
9119;BMP180;4594;50.994;7.126;2022-07-29T05:35:10;100610.00;;;25.20
9119;BMP180;4594;50.994;7.126;2022-07-29T05:37:35;100613.00;;;25.30
9119;BMP180;4594;50.994;7.126;2022-07-29T05:40:02;100615.00;;;25.40
9119;BMP180;4594;50.994;7.126;2022-07-29T05:42:28;100611.00;;;25.50
9119;BMP180;4594;50.994;7.126;2022-07-29T05:44:55;100611.00;;;25.50
9119;BMP180;4594;50.994;7.126;2022-07-29T05:47:22;100613.00;;;25.60
9119;BMP180;4594;50.994;7.126;2022-07-29T05:49:47;100618.00;;;25.70
9119;BMP180;4594;50.994;7.126;2022-07-29T05:52:14;100617.00;;;25.80
9119;BMP180;4594;50.994;7.126;2022-07-29T05:54:40;100622.00;;;25.90
9119;BMP180;4594;50.994;7.126;2022-07-29T05:57:06;100628.00;;;26.00
9119;BMP180;4594;50.994;7.126;2022-07-29T05:59:36;100627.00;;;26.20
9119;BMP180;4594;50.994;7.126;2022-07-29T06:02:02;100637.00;;;26.30
9119;BMP180;4594;50.994;7.126;2022-07-29T06:04:28;100645.00;;;26.40
9119;BMP180;4594;50.994;7.126;2022-07-29T06:06:53;100658.00;;;26.50
9119;BMP180;4594;50.994;7.126;2022-07-29T06:09:19;100660.00;;;26.60
9119;BMP180;4594;50.994;7.126;2022-07-29T06:11:45;100664.00;;;26.80
9119;BMP180;4594;50.994;7.126;2022-07-29T06:14:11;100661.00;;;27.00
9119;BMP180;4594;50.994;7.126;2022-07-29T06:16:36;100659.00;;;27.10
9119;BMP180;4594;50.994;7.126;2022-07-29T06:19:02;100660.00;;;27.20
9119;BMP180;4594;50.994;7.126;2022-07-29T06:21:28;100667.00;;;27.20
9119;BMP180;4594;50.994;7.126;2022-07-29T06:23:53;100668.00;;;27.30
9119;BMP180;4594;50.994;7.126;2022-07-29T06:26:19;100670.00;;;27.40
9119;BMP180;4594;50.994;7.126;2022-07-29T06:28:45;100676.00;;;27.50
9119;BMP180;4594;50.994;7.126;2022-07-29T06:31:10;100662.00;;;27.70
9119;BMP180;4594;50.994;7.126;2022-07-29T06:33:36;100675.00;;;27.80
9119;BMP180;4594;50.994;7.126;2022-07-29T06:36:04;100664.00;;;28.00
9119;BMP180;4594;50.994;7.126;2022-07-29T06:38:32;100675.00;;;28.10
9119;BMP180;4594;50.994;7.126;2022-07-29T06:40:59;100670.00;;;28.30
9119;BMP180;4594;50.994;7.126;2022-07-29T06:43:27;100673.00;;;28.60
9119;BMP180;4594;50.994;7.126;2022-07-29T06:45:58;100680.00;;;28.90
9119;BMP180;4594;50.994;7.126;2022-07-29T06:48:24;100678.00;;;29.20
9119;BMP180;4594;50.994;7.126;2022-07-29T06:50:50;100686.00;;;29.50
9119;BMP180;4594;50.994;7.126;2022-07-29T06:53:15;100685.00;;;29.70
9119;BMP180;4594;50.994;7.126;2022-07-29T06:55:41;100685.00;;;29.80
9119;BMP180;4594;50.994;7.126;2022-07-29T06:58:07;100682.00;;;29.90
9119;BMP180;4594;50.994;7.126;2022-07-29T07:00:35;100677.00;;;29.90
9119;BMP180;4594;50.994;7.126;2022-07-29T07:03:01;100674.00;;;30.00
9119;BMP180;4594;50.994;7.126;2022-07-29T07:05:26;100669.00;;;30.00
9119;BMP180;4594;50.994;7.126;2022-07-29T07:07:52;100685.00;;;30.00
9119;BMP180;4594;50.994;7.126;2022-07-29T07:10:18;100681.00;;;30.00
9119;BMP180;4594;50.994;7.126;2022-07-29T07:12:43;100693.00;;;30.10
9119;BMP180;4594;50.994;7.126;2022-07-29T07:15:09;100683.00;;;30.10
9119;BMP180;4594;50.994;7.126;2022-07-29T07:17:35;100676.00;;;30.10
9119;BMP180;4594;50.994;7.126;2022-07-29T07:20:01;100669.00;;;30.20
9119;BMP180;4594;50.994;7.126;2022-07-29T07:22:26;100671.00;;;30.20
9119;BMP180;4594;50.994;7.126;2022-07-29T07:24:52;100684.00;;;30.30
9119;BMP180;4594;50.994;7.126;2022-07-29T07:27:18;100673.00;;;30.30
9119;BMP180;4594;50.994;7.126;2022-07-29T07:29:43;100673.00;;;30.30
9119;BMP180;4594;50.994;7.126;2022-07-29T07:32:09;100673.00;;;30.30
9119;BMP180;4594;50.994;7.126;2022-07-29T07:34:35;100662.00;;;30.30
9119;BMP180;4594;50.994;7.126;2022-07-29T07:37:01;100668.00;;;30.30
9119;BMP180;4594;50.994;7.126;2022-07-29T07:39:26;100671.00;;;30.30
9119;BMP180;4594;50.994;7.126;2022-07-29T07:41:52;100668.00;;;30.40
9119;BMP180;4594;50.994;7.126;2022-07-29T07:44:18;100673.00;;;30.60
9119;BMP180;4594;50.994;7.126;2022-07-29T07:46:43;100663.00;;;31.00
9119;BMP180;4594;50.994;7.126;2022-07-29T07:49:11;100665.00;;;31.60
9119;BMP180;4594;50.994;7.126;2022-07-29T07:51:36;100681.00;;;32.00
9119;BMP180;4594;50.994;7.126;2022-07-29T07:54:02;100675.00;;;32.30
9119;BMP180;4594;50.994;7.126;2022-07-29T07:56:28;100676.00;;;32.40
9119;BMP180;4594;50.994;7.126;2022-07-29T07:58:53;100671.00;;;32.50
9119;BMP180;4594;50.994;7.126;2022-07-29T08:01:19;100670.00;;;32.60
9119;BMP180;4594;50.994;7.126;2022-07-29T08:03:49;100673.00;;;32.60
9119;BMP180;4594;50.994;7.126;2022-07-29T08:06:14;100676.00;;;32.70
9119;BMP180;4594;50.994;7.126;2022-07-29T08:08:40;100662.00;;;32.60
9119;BMP180;4594;50.994;7.126;2022-07-29T08:11:06;100658.00;;;32.60
9119;BMP180;4594;50.994;7.126;2022-07-29T08:13:32;100664.00;;;32.60
9119;BMP180;4594;50.994;7.126;2022-07-29T08:15:59;100661.00;;;32.50
9119;BMP180;4594;50.994;7.126;2022-07-29T08:18:36;100669.00;;;32.40
9119;BMP180;4594;50.994;7.126;2022-07-29T08:21:03;100669.00;;;32.40
9119;BMP180;4594;50.994;7.126;2022-07-29T08:23:29;100677.00;;;32.30
9119;BMP180;4594;50.994;7.126;2022-07-29T08:26:05;100680.00;;;32.20
9119;BMP180;4594;50.994;7.126;2022-07-29T08:28:40;100672.00;;;32.20
9119;BMP180;4594;50.994;7.126;2022-07-29T08:31:06;100671.00;;;32.10
9119;BMP180;4594;50.994;7.126;2022-07-29T08:33:33;100674.00;;;32.10
9119;BMP180;4594;50.994;7.126;2022-07-29T08:35:58;100671.00;;;32.00
9119;BMP180;4594;50.994;7.126;2022-07-29T08:38:24;100666.00;;;32.00
9119;BMP180;4594;50.994;7.126;2022-07-29T08:40:52;100673.00;;;31.90
9119;BMP180;4594;50.994;7.126;2022-07-29T08:43:18;100662.00;;;31.90
9119;BMP180;4594;50.994;7.126;2022-07-29T08:45:50;100665.00;;;31.80
9119;BMP180;4594;50.994;7.126;2022-07-29T08:48:19;100665.00;;;31.80
9119;BMP180;4594;50.994;7.126;2022-07-29T08:50:48;100670.00;;;31.70
9119;BMP180;4594;50.994;7.126;2022-07-29T08:53:17;100670.00;;;31.60
9119;BMP180;4594;50.994;7.126;2022-07-29T08:55:46;100668.00;;;31.60
9119;BMP180;4594;50.994;7.126;2022-07-29T08:58:14;100673.00;;;31.60
9119;BMP180;4594;50.994;7.126;2022-07-29T09:00:46;100667.00;;;31.60
9119;BMP180;4594;50.994;7.126;2022-07-29T09:03:18;100657.00;;;31.60
9119;BMP180;4594;50.994;7.126;2022-07-29T09:05:46;100659.00;;;31.60
9119;BMP180;4594;50.994;7.126;2022-07-29T09:08:14;100661.00;;;31.60
9119;BMP180;4594;50.994;7.126;2022-07-29T09:10:40;100661.00;;;31.60
9119;BMP180;4594;50.994;7.126;2022-07-29T09:13:06;100658.00;;;31.60
9119;BMP180;4594;50.994;7.126;2022-07-29T09:15:32;100654.00;;;31.60
9119;BMP180;4594;50.994;7.126;2022-07-29T09:17:58;100660.00;;;31.60
9119;BMP180;4594;50.994;7.126;2022-07-29T09:20:27;100660.00;;;31.70
9119;BMP180;4594;50.994;7.126;2022-07-29T09:23:13;100656.00;;;31.70
9119;BMP180;4594;50.994;7.126;2022-07-29T09:25:40;100649.00;;;32.00
9119;BMP180;4594;50.994;7.126;2022-07-29T09:28:10;100653.00;;;32.20
9119;BMP180;4594;50.994;7.126;2022-07-29T09:30:55;100659.00;;;32.40
9119;BMP180;4594;50.994;7.126;2022-07-29T09:33:23;100655.00;;;32.60
9119;BMP180;4594;50.994;7.126;2022-07-29T09:36:05;100655.00;;;32.70
9119;BMP180;4594;50.994;7.126;2022-07-29T09:38:32;100653.00;;;33.00
9119;BMP180;4594;50.994;7.126;2022-07-29T09:41:01;100652.00;;;33.40
9119;BMP180;4594;50.994;7.126;2022-07-29T09:43:27;100644.00;;;34.00
9119;BMP180;4594;50.994;7.126;2022-07-29T09:45:53;100634.00;;;34.90
9119;BMP180;4594;50.994;7.126;2022-07-29T09:48:23;100645.00;;;35.70
9119;BMP180;4594;50.994;7.126;2022-07-29T09:50:51;100633.00;;;36.40
9119;BMP180;4594;50.994;7.126;2022-07-29T09:53:35;100644.00;;;37.50
9119;BMP180;4594;50.994;7.126;2022-07-29T09:56:02;100648.00;;;37.70
9119;BMP180;4594;50.994;7.126;2022-07-29T09:58:28;100646.00;;;37.80
9119;BMP180;4594;50.994;7.126;2022-07-29T10:00:56;100640.00;;;38.00
9119;BMP180;4594;50.994;7.126;2022-07-29T10:03:22;100655.00;;;38.70
9119;BMP180;4594;50.994;7.126;2022-07-29T10:06:11;100642.00;;;39.30
9119;BMP180;4594;50.994;7.126;2022-07-29T10:08:41;100648.00;;;40.40
9119;BMP180;4594;50.994;7.126;2022-07-29T10:11:16;100664.00;;;40.90
9119;BMP180;4594;50.994;7.126;2022-07-29T10:13:45;100669.00;;;40.70
9119;BMP180;4594;50.994;7.126;2022-07-29T10:16:12;100665.00;;;40.50
9119;BMP180;4594;50.994;7.126;2022-07-29T10:18:40;100663.00;;;40.20
9119;BMP180;4594;50.994;7.126;2022-07-29T10:21:07;100666.00;;;40.00
9119;BMP180;4594;50.994;7.126;2022-07-29T10:23:34;100666.00;;;39.70
9119;BMP180;4594;50.994;7.126;2022-07-29T10:26:02;100669.00;;;39.40
9119;BMP180;4594;50.994;7.126;2022-07-29T10:28:30;100663.00;;;39.10
9119;BMP180;4594;50.994;7.126;2022-07-29T10:31:03;100661.00;;;38.90
9119;BMP180;4594;50.994;7.126;2022-07-29T10:33:55;100666.00;;;38.70
9119;BMP180;4594;50.994;7.126;2022-07-29T10:36:50;100661.00;;;38.60
9119;BMP180;4594;50.994;7.126;2022-07-29T10:42:23;100665.00;;;38.30
9119;BMP180;4594;50.994;7.126;2022-07-29T10:44:51;100674.00;;;38.10
9119;BMP180;4594;50.994;7.126;2022-07-29T10:47:24;100673.00;;;37.90
9119;BMP180;4594;50.994;7.126;2022-07-29T10:50:02;100676.00;;;37.80
9119;BMP180;4594;50.994;7.126;2022-07-29T10:55:38;100669.00;;;37.60
9119;BMP180;4594;50.994;7.126;2022-07-29T10:58:23;100681.00;;;37.50
9119;BMP180;4594;50.994;7.126;2022-07-29T11:00:52;100677.00;;;37.40
9119;BMP180;4594;50.994;7.126;2022-07-29T11:03:47;100672.00;;;37.50
9119;BMP180;4594;50.994;7.126;2022-07-29T11:06:14;100676.00;;;37.60
9119;BMP180;4594;50.994;7.126;2022-07-29T11:08:41;100672.00;;;37.40
9119;BMP180;4594;50.994;7.126;2022-07-29T11:13:49;100660.00;;;37.00
9119;BMP180;4594;50.994;7.126;2022-07-29T11:16:20;100671.00;;;37.10
9119;BMP180;4594;50.994;7.126;2022-07-29T11:21:38;100655.00;;;37.00
9119;BMP180;4594;50.994;7.126;2022-07-29T11:26:32;100655.00;;;37.80
9119;BMP180;4594;50.994;7.126;2022-07-29T11:29:19;100661.00;;;38.40
9119;BMP180;4594;50.994;7.126;2022-07-29T11:31:50;100649.00;;;38.80
9119;BMP180;4594;50.994;7.126;2022-07-29T11:34:25;100653.00;;;39.10
9119;BMP180;4594;50.994;7.126;2022-07-29T11:45:09;100657.00;;;38.70
9119;BMP180;4594;50.994;7.126;2022-07-29T11:47:39;100657.00;;;38.50
9119;BMP180;4594;50.994;7.126;2022-07-29T11:50:12;100671.00;;;38.30
9119;BMP180;4594;50.994;7.126;2022-07-29T11:52:44;100672.00;;;38.10
9119;BMP180;4594;50.994;7.126;2022-07-29T11:55:20;100671.00;;;37.90
9119;BMP180;4594;50.994;7.126;2022-07-29T11:57:53;100663.00;;;37.70
9119;BMP180;4594;50.994;7.126;2022-07-29T12:00:32;100664.00;;;37.50
9119;BMP180;4594;50.994;7.126;2022-07-29T12:03:05;100661.00;;;37.30
9119;BMP180;4594;50.994;7.126;2022-07-29T12:05:51;100660.00;;;37.10
9119;BMP180;4594;50.994;7.126;2022-07-29T12:08:19;100660.00;;;37.00
9119;BMP180;4594;50.994;7.126;2022-07-29T12:10:47;100658.00;;;36.90
9119;BMP180;4594;50.994;7.126;2022-07-29T12:13:15;100661.00;;;36.70
9119;BMP180;4594;50.994;7.126;2022-07-29T12:15:42;100672.00;;;36.60
9119;BMP180;4594;50.994;7.126;2022-07-29T12:18:18;100666.00;;;36.40
9119;BMP180;4594;50.994;7.126;2022-07-29T12:20:46;100659.00;;;36.30
9119;BMP180;4594;50.994;7.126;2022-07-29T12:23:14;100660.00;;;36.20
9119;BMP180;4594;50.994;7.126;2022-07-29T12:25:43;100657.00;;;36.20
9119;BMP180;4594;50.994;7.126;2022-07-29T12:28:13;100663.00;;;36.10
9119;BMP180;4594;50.994;7.126;2022-07-29T12:30:47;100648.00;;;36.00
9119;BMP180;4594;50.994;7.126;2022-07-29T12:33:25;100659.00;;;35.90
9119;BMP180;4594;50.994;7.126;2022-07-29T12:35:58;100662.00;;;35.80
9119;BMP180;4594;50.994;7.126;2022-07-29T12:38:26;100656.00;;;35.70
9119;BMP180;4594;50.994;7.126;2022-07-29T12:40:54;100658.00;;;35.60
9119;BMP180;4594;50.994;7.126;2022-07-29T12:43:23;100655.00;;;35.60
9119;BMP180;4594;50.994;7.126;2022-07-29T12:45:56;100664.00;;;35.50
9119;BMP180;4594;50.994;7.126;2022-07-29T12:48:40;100651.00;;;35.50
9119;BMP180;4594;50.994;7.126;2022-07-29T12:51:08;100655.00;;;35.50
9119;BMP180;4594;50.994;7.126;2022-07-29T12:53:35;100656.00;;;35.50
9119;BMP180;4594;50.994;7.126;2022-07-29T12:56:03;100657.00;;;35.50
9119;BMP180;4594;50.994;7.126;2022-07-29T12:58:39;100669.00;;;35.50
9119;BMP180;4594;50.994;7.126;2022-07-29T13:01:14;100657.00;;;35.50
9119;BMP180;4594;50.994;7.126;2022-07-29T13:03:57;100655.00;;;35.50
9119;BMP180;4594;50.994;7.126;2022-07-29T13:09:19;100641.00;;;35.20
9119;BMP180;4594;50.994;7.126;2022-07-29T13:11:51;100655.00;;;35.10
9119;BMP180;4594;50.994;7.126;2022-07-29T13:14:36;100657.00;;;34.90
9119;BMP180;4594;50.994;7.126;2022-07-29T13:17:11;100651.00;;;34.80
9119;BMP180;4594;50.994;7.126;2022-07-29T13:19:41;100652.00;;;34.80
9119;BMP180;4594;50.994;7.126;2022-07-29T13:22:09;100660.00;;;34.80
9119;BMP180;4594;50.994;7.126;2022-07-29T13:25:06;100644.00;;;34.80
9119;BMP180;4594;50.994;7.126;2022-07-29T13:27:35;100650.00;;;34.80
9119;BMP180;4594;50.994;7.126;2022-07-29T13:30:06;100653.00;;;34.70
9119;BMP180;4594;50.994;7.126;2022-07-29T13:32:32;100649.00;;;34.70
9119;BMP180;4594;50.994;7.126;2022-07-29T13:35:04;100626.00;;;34.70
9119;BMP180;4594;50.994;7.126;2022-07-29T13:37:30;100631.00;;;34.70
9119;BMP180;4594;50.994;7.126;2022-07-29T13:39:58;100643.00;;;34.70
9119;BMP180;4594;50.994;7.126;2022-07-29T13:42:25;100655.00;;;34.80
9119;BMP180;4594;50.994;7.126;2022-07-29T13:44:52;100629.00;;;34.80
9119;BMP180;4594;50.994;7.126;2022-07-29T13:47:19;100644.00;;;34.80
9119;BMP180;4594;50.994;7.126;2022-07-29T13:49:45;100642.00;;;34.80
9119;BMP180;4594;50.994;7.126;2022-07-29T13:52:11;100638.00;;;34.90
9119;BMP180;4594;50.994;7.126;2022-07-29T13:54:37;100644.00;;;34.90
9119;BMP180;4594;50.994;7.126;2022-07-29T13:57:06;100647.00;;;34.90
9119;BMP180;4594;50.994;7.126;2022-07-29T13:59:32;100613.00;;;34.90
9119;BMP180;4594;50.994;7.126;2022-07-29T14:01:58;100639.00;;;34.80
9119;BMP180;4594;50.994;7.126;2022-07-29T14:04:23;100649.00;;;34.80
9119;BMP180;4594;50.994;7.126;2022-07-29T14:06:50;100636.00;;;34.70
9119;BMP180;4594;50.994;7.126;2022-07-29T14:09:16;100638.00;;;34.70
9119;BMP180;4594;50.994;7.126;2022-07-29T14:11:41;100631.00;;;34.60
9119;BMP180;4594;50.994;7.126;2022-07-29T14:14:07;100646.00;;;34.50
9119;BMP180;4594;50.994;7.126;2022-07-29T14:16:33;100634.00;;;34.40
9119;BMP180;4594;50.994;7.126;2022-07-29T14:19:00;100636.00;;;34.30
9119;BMP180;4594;50.994;7.126;2022-07-29T14:21:25;100642.00;;;34.30
9119;BMP180;4594;50.994;7.126;2022-07-29T14:23:51;100644.00;;;34.20
9119;BMP180;4594;50.994;7.126;2022-07-29T14:26:18;100647.00;;;34.10
9119;BMP180;4594;50.994;7.126;2022-07-29T14:28:43;100643.00;;;34.00
9119;BMP180;4594;50.994;7.126;2022-07-29T14:31:10;100624.00;;;33.90
9119;BMP180;4594;50.994;7.126;2022-07-29T14:33:35;100646.00;;;33.80
9119;BMP180;4594;50.994;7.126;2022-07-29T14:36:01;100633.00;;;33.80
9119;BMP180;4594;50.994;7.126;2022-07-29T14:38:27;100644.00;;;33.70
9119;BMP180;4594;50.994;7.126;2022-07-29T14:40:52;100652.00;;;33.60
9119;BMP180;4594;50.994;7.126;2022-07-29T14:43:18;100650.00;;;33.50
9119;BMP180;4594;50.994;7.126;2022-07-29T14:45:44;100646.00;;;33.40
9119;BMP180;4594;50.994;7.126;2022-07-29T14:48:10;100653.00;;;33.40
9119;BMP180;4594;50.994;7.126;2022-07-29T14:50:37;100653.00;;;33.30
9119;BMP180;4594;50.994;7.126;2022-07-29T14:53:03;100656.00;;;33.20
9119;BMP180;4594;50.994;7.126;2022-07-29T14:55:29;100654.00;;;33.10
9119;BMP180;4594;50.994;7.126;2022-07-29T14:57:55;100644.00;;;33.10
9119;BMP180;4594;50.994;7.126;2022-07-29T15:00:22;100656.00;;;33.00
9119;BMP180;4594;50.994;7.126;2022-07-29T15:02:48;100649.00;;;33.00
9119;BMP180;4594;50.994;7.126;2022-07-29T15:05:14;100657.00;;;33.00
9119;BMP180;4594;50.994;7.126;2022-07-29T15:07:40;100658.00;;;32.90